createdAt,value
2023-05-02T00:00:11.511Z,0.00
2023-05-02T00:01:11.493Z,0.00
2023-05-02T00:02:11.541Z,0.00
2023-05-02T00:03:11.512Z,0.00
2023-05-02T00:04:11.584Z,0.00
2023-05-02T00:05:11.558Z,0.00
2023-05-02T00:06:11.476Z,0.00
2023-05-02T00:07:11.444Z,0.00
2023-05-02T00:08:11.431Z,0.00
2023-05-02T00:09:11.411Z,0.00
2023-05-02T00:10:11.411Z,0.00
2023-05-02T00:11:11.392Z,0.00
2023-05-02T00:12:11.382Z,0.00
2023-05-02T00:13:11.373Z,0.00
2023-05-02T00:14:11.343Z,0.00
2023-05-02T00:15:11.377Z,0.00
2023-05-02T00:16:11.363Z,0.00
2023-05-02T00:17:11.549Z,0.00
2023-05-02T00:18:11.376Z,0.00
2023-05-02T00:19:11.328Z,0.00
2023-05-02T00:20:11.369Z,0.00
2023-05-02T00:21:11.293Z,0.00
2023-05-02T00:22:11.293Z,0.00
2023-05-02T00:23:11.272Z,0.00
2023-05-02T00:24:11.289Z,0.00
2023-05-02T00:25:11.265Z,0.00
2023-05-02T00:26:11.242Z,0.00
2023-05-02T00:27:11.226Z,0.00
2023-05-02T00:28:11.255Z,0.00
2023-05-02T00:29:11.230Z,0.00
2023-05-02T00:30:11.241Z,0.00
2023-05-02T00:31:11.229Z,0.00
2023-05-02T00:32:11.178Z,0.00
2023-05-02T00:33:11.311Z,0.00
2023-05-02T00:34:11.197Z,0.00
2023-05-02T00:35:11.184Z,0.00
2023-05-02T00:36:11.142Z,0.00
2023-05-02T00:37:11.136Z,0.00
2023-05-02T00:38:11.122Z,0.00
2023-05-02T00:39:11.112Z,0.00
2023-05-02T00:40:11.127Z,0.00
2023-05-02T00:41:11.100Z,0.00
2023-05-02T00:42:11.094Z,0.00
2023-05-02T00:43:11.093Z,0.00
2023-05-02T00:44:11.063Z,0.00
2023-05-02T00:45:11.074Z,0.00
2023-05-02T00:46:11.083Z,0.00
2023-05-02T00:47:11.043Z,0.00
2023-05-02T00:48:11.158Z,0.00
2023-05-02T00:49:11.013Z,0.00
2023-05-02T00:50:11.037Z,0.00
2023-05-02T00:51:11.006Z,0.00
2023-05-02T00:52:10.992Z,0.00
2023-05-02T00:53:11.043Z,0.00
2023-05-02T00:54:10.986Z,0.00
2023-05-02T00:55:10.987Z,0.00
2023-05-02T00:56:10.944Z,0.00
2023-05-02T00:57:10.936Z,0.00
2023-05-02T00:58:10.953Z,0.00
2023-05-02T00:59:10.918Z,0.00
2023-05-02T01:00:10.947Z,0.00
2023-05-02T01:01:10.930Z,0.00
2023-05-02T01:02:10.918Z,0.00
2023-05-02T01:03:10.910Z,0.00
2023-05-02T01:04:10.937Z,0.00
2023-05-02T01:05:10.900Z,0.00
2023-05-02T01:06:10.869Z,0.00
2023-05-02T01:07:10.847Z,0.00
2023-05-02T01:08:10.832Z,0.00
2023-05-02T01:09:10.821Z,0.00
2023-05-02T01:10:10.845Z,0.00
2023-05-02T01:11:10.789Z,0.00
2023-05-02T01:12:10.799Z,0.00
2023-05-02T01:13:10.799Z,0.00
2023-05-02T01:14:10.780Z,0.00
2023-05-02T01:15:10.776Z,0.00
2023-05-02T01:16:10.800Z,0.00
2023-05-02T01:17:10.730Z,0.00
2023-05-02T01:18:10.748Z,0.00
2023-05-02T01:19:10.715Z,0.00
2023-05-02T01:20:10.729Z,0.00
2023-05-02T01:21:10.702Z,0.00
2023-05-02T01:22:10.683Z,0.00
2023-05-02T01:23:10.680Z,0.00
2023-05-02T01:24:10.683Z,0.00
2023-05-02T01:25:10.711Z,0.00
2023-05-02T01:26:10.667Z,0.00
2023-05-02T01:27:10.648Z,0.00
2023-05-02T01:28:10.626Z,0.00
2023-05-02T01:29:10.614Z,0.00
2023-05-02T01:30:10.644Z,0.00
2023-05-02T01:31:10.653Z,0.00
2023-05-02T01:32:10.599Z,0.00
2023-05-02T01:33:10.611Z,0.00
2023-05-02T01:34:10.560Z,0.00
2023-05-02T01:35:10.601Z,0.00
2023-05-02T01:36:10.556Z,0.00
2023-05-02T01:37:10.527Z,0.00
2023-05-02T01:38:10.521Z,0.00
2023-05-02T01:39:10.529Z,0.00
2023-05-02T01:40:10.528Z,0.00
2023-05-02T01:41:10.595Z,0.00
2023-05-02T01:42:10.494Z,0.00
2023-05-02T01:43:10.499Z,0.00
2023-05-02T01:44:10.504Z,0.00
2023-05-02T01:45:10.499Z,0.00
2023-05-02T01:46:10.475Z,0.00
2023-05-02T01:47:10.497Z,0.00
2023-05-02T01:48:10.481Z,0.00
2023-05-02T01:49:10.432Z,0.00
2023-05-02T01:50:10.477Z,0.00
2023-05-02T01:51:10.419Z,0.00
2023-05-02T01:52:10.392Z,0.00
2023-05-02T01:53:10.383Z,0.00
2023-05-02T01:54:10.374Z,0.00
2023-05-02T01:55:10.397Z,0.00
2023-05-02T01:56:10.352Z,0.00
2023-05-02T01:57:10.344Z,0.00
2023-05-02T01:58:10.345Z,0.00
2023-05-02T01:59:10.335Z,0.00
2023-05-02T02:00:10.353Z,0.00
2023-05-02T02:01:10.374Z,0.00
2023-05-02T02:02:10.307Z,0.00
2023-05-02T02:03:11.311Z,0.00
2023-05-02T02:04:10.335Z,0.00
2023-05-02T02:05:10.305Z,0.00
2023-05-02T02:06:10.342Z,0.00
2023-05-02T02:07:10.268Z,0.00
2023-05-02T02:08:10.248Z,0.00
2023-05-02T02:09:10.224Z,0.00
2023-05-02T02:10:10.277Z,0.00
2023-05-02T02:11:10.208Z,0.00
2023-05-02T02:12:10.212Z,0.00
2023-05-02T02:13:10.211Z,0.00
2023-05-02T02:14:10.187Z,0.00
2023-05-02T02:15:10.184Z,0.00
2023-05-02T02:16:10.207Z,0.00
2023-05-02T02:17:10.198Z,0.00
2023-05-02T02:18:10.215Z,0.00
2023-05-02T02:19:10.135Z,0.00
2023-05-02T02:20:10.159Z,0.00
2023-05-02T02:21:10.102Z,0.00
2023-05-02T02:22:10.116Z,0.00
2023-05-02T02:23:10.106Z,0.00
2023-05-02T02:24:10.080Z,0.00
2023-05-02T02:25:10.116Z,0.00
2023-05-02T02:26:10.089Z,0.00
2023-05-02T02:27:10.071Z,0.00
2023-05-02T02:28:10.070Z,0.00
2023-05-02T02:29:10.036Z,0.00
2023-05-02T02:30:10.050Z,0.00
2023-05-02T02:31:10.065Z,0.00
2023-05-02T02:32:10.013Z,0.00
2023-05-02T02:33:10.050Z,0.00
2023-05-02T02:34:09.985Z,0.00
2023-05-02T02:35:10.003Z,0.00
2023-05-02T02:36:09.965Z,0.00
2023-05-02T02:37:09.958Z,0.00
2023-05-02T02:38:10.027Z,0.00
2023-05-02T02:39:09.932Z,0.00
2023-05-02T02:40:09.952Z,0.00
2023-05-02T02:41:09.912Z,0.00
2023-05-02T02:42:09.903Z,0.00
2023-05-02T02:43:09.921Z,0.00
2023-05-02T02:44:11.608Z,0.00
2023-05-02T02:45:09.878Z,0.00
2023-05-02T02:46:09.870Z,0.00
2023-05-02T02:47:09.841Z,0.00
2023-05-02T02:48:09.907Z,0.00
2023-05-02T02:49:09.831Z,0.00
2023-05-02T02:50:10.010Z,0.00
2023-05-02T02:51:09.817Z,0.00
2023-05-02T02:52:09.793Z,0.00
2023-05-02T02:53:09.800Z,0.00
2023-05-02T02:54:23.028Z,0.00
2023-05-02T02:55:11.813Z,0.00
2023-05-02T02:56:09.763Z,0.00
2023-05-02T02:57:09.749Z,0.00
2023-05-02T02:58:09.732Z,0.00
2023-05-02T02:59:09.725Z,0.00
2023-05-02T03:00:09.784Z,0.00
2023-05-02T03:01:09.738Z,0.00
2023-05-02T03:02:09.809Z,0.00
2023-05-02T03:03:09.868Z,0.00
2023-05-02T03:04:09.693Z,0.00
2023-05-02T03:05:09.690Z,0.00
2023-05-02T03:06:09.705Z,0.00
2023-05-02T03:07:09.663Z,0.00
2023-05-02T03:08:09.630Z,0.00
2023-05-02T03:09:09.663Z,0.00
2023-05-02T03:10:09.643Z,0.00
2023-05-02T03:11:09.634Z,0.00
2023-05-02T03:12:09.611Z,0.00
2023-05-02T03:13:09.602Z,0.00
2023-05-02T03:14:09.573Z,0.00
2023-05-02T03:15:09.578Z,0.00
2023-05-02T03:16:10.746Z,0.00
2023-05-02T03:17:09.544Z,0.00
2023-05-02T03:18:09.596Z,0.00
2023-05-02T03:19:09.569Z,0.00
2023-05-02T03:20:09.549Z,0.00
2023-05-02T03:21:09.570Z,0.00
2023-05-02T03:22:09.520Z,0.00
2023-05-02T03:23:09.492Z,0.00
2023-05-02T03:24:09.512Z,0.00
2023-05-02T03:25:09.491Z,0.00
2023-05-02T03:26:09.503Z,4.00
2023-05-02T03:27:09.460Z,4.00
2023-05-02T03:28:09.461Z,4.00
2023-05-02T03:29:09.448Z,4.00
2023-05-02T03:30:09.462Z,4.00
2023-05-02T03:31:09.459Z,8.00
2023-05-02T03:32:09.512Z,4.00
2023-05-02T03:33:09.523Z,8.00
2023-05-02T03:34:09.408Z,8.00
2023-05-02T03:35:09.392Z,8.00
2023-05-02T03:36:09.375Z,12.00
2023-05-02T03:37:09.369Z,12.00
2023-05-02T03:38:09.345Z,16.00
2023-05-02T03:39:09.350Z,16.00
2023-05-02T03:40:09.323Z,16.00
2023-05-02T03:41:09.355Z,16.00
2023-05-02T03:42:09.321Z,16.00
2023-05-02T03:43:09.333Z,16.00
2023-05-02T03:44:09.297Z,20.00
2023-05-02T03:45:09.281Z,20.00
2023-05-02T03:46:09.328Z,20.00
2023-05-02T03:47:09.411Z,24.00
2023-05-02T03:48:09.296Z,28.00
2023-05-02T03:49:09.262Z,28.00
2023-05-02T03:50:09.279Z,32.00
2023-05-02T03:51:09.262Z,36.00
2023-05-02T03:52:09.225Z,40.00
2023-05-02T03:53:09.211Z,44.00
2023-05-02T03:54:09.188Z,44.00
2023-05-02T03:55:09.203Z,52.00
2023-05-02T03:56:09.216Z,56.00
2023-05-02T03:57:09.187Z,60.00
2023-05-02T03:58:09.161Z,60.00
2023-05-02T03:59:10.204Z,64.00
2023-05-02T04:00:09.142Z,64.00
2023-05-02T04:01:09.173Z,68.00
2023-05-02T04:02:09.171Z,68.00
2023-05-02T04:03:09.191Z,72.00
2023-05-02T04:04:09.144Z,72.00
2023-05-02T04:05:09.097Z,72.00
2023-05-02T04:06:09.213Z,72.00
2023-05-02T04:07:10.067Z,76.00
2023-05-02T04:08:09.068Z,80.00
2023-05-02T04:09:09.056Z,84.00
2023-05-02T04:10:09.038Z,84.00
2023-05-02T04:11:09.044Z,92.00
2023-05-02T04:12:09.009Z,92.00
2023-05-02T04:13:40.923Z,100.00
2023-05-02T04:14:08.993Z,104.00
2023-05-02T04:15:08.971Z,112.00
2023-05-02T04:16:08.978Z,116.00
2023-05-02T04:17:08.978Z,120.00
2023-05-02T04:18:09.001Z,132.00
2023-05-02T04:19:08.933Z,140.00
2023-05-02T04:20:09.083Z,152.00
2023-05-02T04:21:08.947Z,156.00
2023-05-02T04:22:08.895Z,160.00
2023-05-02T04:23:08.893Z,172.00
2023-05-02T04:24:08.895Z,172.00
2023-05-02T04:25:08.871Z,172.00
2023-05-02T04:26:08.876Z,176.00
2023-05-02T04:27:08.857Z,180.00
2023-05-02T04:28:08.834Z,184.00
2023-05-02T04:29:08.839Z,184.00
2023-05-02T04:30:08.823Z,180.00
2023-05-02T04:31:08.906Z,176.00
2023-05-02T04:32:08.808Z,172.00
2023-05-02T04:33:08.861Z,160.00
2023-05-02T04:34:08.774Z,160.00
2023-05-02T04:35:08.767Z,172.00
2023-05-02T04:36:08.851Z,184.00
2023-05-02T04:37:08.745Z,192.00
2023-05-02T04:38:08.744Z,204.00
2023-05-02T04:39:08.725Z,212.00
2023-05-02T04:40:08.724Z,220.00
2023-05-02T04:41:09.676Z,228.00
2023-05-02T04:42:08.708Z,236.00
2023-05-02T04:43:08.689Z,248.00
2023-05-02T04:44:08.687Z,268.00
2023-05-02T04:45:08.664Z,284.00
2023-05-02T04:46:08.737Z,308.00
2023-05-02T04:47:08.641Z,308.00
2023-05-02T04:48:08.669Z,324.00
2023-05-02T04:49:08.628Z,352.00
2023-05-02T04:50:08.652Z,376.00
2023-05-02T04:51:08.625Z,436.00
2023-05-02T04:52:08.638Z,500.00
2023-05-02T04:53:08.591Z,540.00
2023-05-02T04:54:08.572Z,608.00
2023-05-02T04:55:08.574Z,724.00
2023-05-02T04:56:08.576Z,912.00
2023-05-02T04:57:08.541Z,1192.00
2023-05-02T04:58:08.534Z,1396.00
2023-05-02T04:59:08.532Z,1512.00
2023-05-02T05:00:08.523Z,1596.00
2023-05-02T05:01:08.553Z,1668.00
2023-05-02T05:02:08.700Z,1708.00
2023-05-02T05:03:08.523Z,1728.00
2023-05-02T05:04:08.632Z,1640.00
2023-05-02T05:05:08.515Z,1584.00
2023-05-02T05:06:08.498Z,1624.00
2023-05-02T05:07:08.622Z,1508.00
2023-05-02T05:08:08.427Z,1500.00
2023-05-02T05:09:08.420Z,1576.00
2023-05-02T05:10:08.439Z,1540.00
2023-05-02T05:11:08.408Z,1444.00
2023-05-02T05:12:08.417Z,1272.00
2023-05-02T05:13:08.404Z,1192.00
2023-05-02T05:14:08.378Z,1260.00
2023-05-02T05:15:08.403Z,1220.00
2023-05-02T05:16:08.417Z,1096.00
2023-05-02T05:17:08.386Z,936.00
2023-05-02T05:18:08.407Z,824.00
2023-05-02T05:19:08.352Z,732.00
2023-05-02T05:20:09.586Z,664.00
2023-05-02T05:21:08.327Z,644.00
2023-05-02T05:22:08.400Z,668.00
2023-05-02T05:23:08.280Z,640.00
2023-05-02T05:24:08.288Z,580.00
2023-05-02T05:25:08.477Z,564.00
2023-05-02T05:26:08.263Z,584.00
2023-05-02T05:27:08.301Z,580.00
2023-05-02T05:28:08.236Z,624.00
2023-05-02T05:29:08.280Z,660.00
2023-05-02T05:30:08.219Z,656.00
2023-05-02T05:31:08.219Z,704.00
2023-05-02T05:32:08.316Z,760.00
2023-05-02T05:33:08.323Z,748.00
2023-05-02T05:34:08.203Z,740.00
2023-05-02T05:35:08.165Z,704.00
2023-05-02T05:36:08.160Z,676.00
2023-05-02T05:37:08.205Z,680.00
2023-05-02T05:38:08.143Z,720.00
2023-05-02T05:39:08.128Z,776.00
2023-05-02T05:40:08.123Z,804.00
2023-05-02T05:41:08.110Z,788.00
2023-05-02T05:42:08.140Z,768.00
2023-05-02T05:43:08.081Z,760.00
2023-05-02T05:44:08.088Z,712.00
2023-05-02T05:45:08.096Z,680.00
2023-05-02T05:46:08.081Z,660.00
2023-05-02T05:47:08.178Z,656.00
2023-05-02T05:48:08.137Z,684.00
2023-05-02T05:49:08.035Z,704.00
2023-05-02T05:50:08.050Z,732.00
2023-05-02T05:51:08.027Z,816.00
2023-05-02T05:52:08.064Z,932.00
2023-05-02T05:53:08.005Z,1068.00
2023-05-02T05:54:08.022Z,1204.00
2023-05-02T05:55:07.981Z,1388.00
2023-05-02T05:56:08.012Z,1648.00
2023-05-02T05:57:08.012Z,2000.00
2023-05-02T05:58:07.963Z,2428.00
2023-05-02T05:59:07.949Z,2924.00
2023-05-02T06:00:07.931Z,3424.00
2023-05-02T06:01:07.907Z,3804.00
2023-05-02T06:02:08.989Z,4096.00
2023-05-02T06:03:09.930Z,4392.00
2023-05-02T06:04:08.982Z,4656.00
2023-05-02T06:05:07.914Z,4828.00
2023-05-02T06:06:07.902Z,5088.00
2023-05-02T06:07:07.892Z,5368.00
2023-05-02T06:08:07.846Z,5292.00
2023-05-02T06:09:07.835Z,4832.00
2023-05-02T06:10:07.843Z,4288.00
2023-05-02T06:11:07.824Z,3676.00
2023-05-02T06:12:07.858Z,3044.00
2023-05-02T06:13:07.799Z,2516.00
2023-05-02T06:14:07.825Z,2148.00
2023-05-02T06:15:07.788Z,1928.00
2023-05-02T06:16:07.792Z,1780.00
2023-05-02T06:17:07.808Z,1780.00
2023-05-02T06:18:07.896Z,1852.00
2023-05-02T06:19:07.771Z,1968.00
2023-05-02T06:20:07.758Z,2136.00
2023-05-02T06:21:07.745Z,2312.00
2023-05-02T06:22:07.754Z,2356.00
2023-05-02T06:23:07.696Z,2292.00
2023-05-02T06:24:07.701Z,2232.00
2023-05-02T06:25:07.661Z,2252.00
2023-05-02T06:26:07.679Z,2252.00
2023-05-02T06:27:07.715Z,2392.00
2023-05-02T06:28:07.648Z,2528.00
2023-05-02T06:29:07.654Z,2544.00
2023-05-02T06:30:07.638Z,2364.00
2023-05-02T06:31:07.806Z,2188.00
2023-05-02T06:32:07.708Z,2284.00
2023-05-02T06:33:07.716Z,2644.00
2023-05-02T06:34:07.584Z,3212.00
2023-05-02T06:35:08.085Z,3828.00
2023-05-02T06:36:07.574Z,4072.00
2023-05-02T06:37:07.574Z,3412.00
2023-05-02T06:38:07.538Z,2948.00
2023-05-02T06:39:07.532Z,2708.00
2023-05-02T06:40:07.505Z,2656.00
2023-05-02T06:41:07.501Z,2876.00
2023-05-02T06:42:07.515Z,2848.00
2023-05-02T06:43:07.497Z,2752.00
2023-05-02T06:44:07.466Z,2748.00
2023-05-02T06:45:07.457Z,2716.00
2023-05-02T06:46:07.497Z,2480.00
2023-05-02T06:47:07.541Z,2136.00
2023-05-02T06:48:07.470Z,1884.00
2023-05-02T06:49:07.415Z,1820.00
2023-05-02T06:50:07.406Z,1976.00
2023-05-02T06:51:07.391Z,2308.00
2023-05-02T06:52:07.417Z,2932.00
2023-05-02T06:53:07.396Z,3880.00
2023-05-02T06:54:07.376Z,4644.00
2023-05-02T06:55:07.360Z,5020.00
2023-05-02T06:56:07.353Z,5424.00
2023-05-02T06:57:07.543Z,6468.00
2023-05-02T06:58:07.335Z,7876.00
2023-05-02T06:59:07.322Z,8568.00
2023-05-02T07:00:07.315Z,8628.00
2023-05-02T07:01:07.390Z,8064.00
2023-05-02T07:02:07.326Z,7976.00
2023-05-02T07:03:07.343Z,8040.00
2023-05-02T07:04:07.290Z,8388.00
2023-05-02T07:05:07.257Z,8452.00
2023-05-02T07:06:07.293Z,8260.00
2023-05-02T07:07:07.254Z,7920.00
2023-05-02T07:08:07.227Z,7824.00
2023-05-02T07:09:07.219Z,8244.00
2023-05-02T07:10:07.212Z,8128.00
2023-05-02T07:11:07.197Z,8312.00
2023-05-02T07:12:07.280Z,9152.00
2023-05-02T07:13:07.200Z,10356.00
2023-05-02T07:14:07.168Z,10988.00
2023-05-02T07:15:07.218Z,11416.00
2023-05-02T07:16:07.198Z,11916.00
2023-05-02T07:17:07.292Z,11700.00
2023-05-02T07:18:07.223Z,11904.00
2023-05-02T07:19:07.139Z,11460.00
2023-05-02T07:20:07.124Z,11184.00
2023-05-02T07:21:07.099Z,10888.00
2023-05-02T07:22:07.091Z,10616.00
2023-05-02T07:23:07.176Z,10260.00
2023-05-02T07:24:07.064Z,9980.00
2023-05-02T07:25:07.047Z,9660.00
2023-05-02T07:26:07.052Z,9304.00
2023-05-02T07:27:07.045Z,9404.00
2023-05-02T07:28:08.071Z,9224.00
2023-05-02T07:29:07.035Z,9080.00
2023-05-02T07:30:07.014Z,8880.00
2023-05-02T07:31:07.015Z,8572.00
2023-05-02T07:32:07.033Z,8996.00
2023-05-02T07:33:07.067Z,9272.00
2023-05-02T07:34:06.975Z,9216.00
2023-05-02T07:35:06.956Z,8976.00
2023-05-02T07:36:06.947Z,9092.00
2023-05-02T07:37:06.929Z,9800.00
2023-05-02T07:38:06.958Z,10156.00
2023-05-02T07:39:06.923Z,10340.00
2023-05-02T07:40:06.936Z,10188.00
2023-05-02T07:41:06.912Z,9916.00
2023-05-02T07:42:06.905Z,9684.00
2023-05-02T07:43:07.899Z,9256.00
2023-05-02T07:44:06.893Z,9076.00
2023-05-02T07:45:06.861Z,9512.00
2023-05-02T07:46:06.951Z,9876.00
2023-05-02T07:47:06.872Z,10100.00
2023-05-02T07:48:06.935Z,10020.00
2023-05-02T07:49:06.844Z,10052.00
2023-05-02T07:50:06.823Z,10016.00
2023-05-02T07:51:06.832Z,9876.00
2023-05-02T07:52:06.819Z,9440.00
2023-05-02T07:53:06.828Z,8888.00
2023-05-02T07:54:06.803Z,8708.00
2023-05-02T07:55:06.777Z,9160.00
2023-05-02T07:56:06.788Z,9616.00
2023-05-02T07:57:06.765Z,9860.00
2023-05-02T07:58:06.792Z,10332.00
2023-05-02T07:59:06.746Z,10860.00
2023-05-02T08:00:06.731Z,11440.00
2023-05-02T08:01:06.710Z,12100.00
2023-05-02T08:02:06.728Z,12808.00
2023-05-02T08:03:06.848Z,13212.00
2023-05-02T08:04:06.871Z,13484.00
2023-05-02T08:05:06.772Z,13640.00
2023-05-02T08:06:06.725Z,13432.00
2023-05-02T08:07:06.667Z,12912.00
2023-05-02T08:08:06.682Z,12628.00
2023-05-02T08:09:06.660Z,12504.00
2023-05-02T08:10:06.646Z,12348.00
2023-05-02T08:11:06.637Z,12196.00
2023-05-02T08:12:06.621Z,12060.00
2023-05-02T08:13:06.631Z,12188.00
2023-05-02T08:14:06.603Z,12352.00
2023-05-02T08:15:06.821Z,12156.00
2023-05-02T08:16:06.648Z,12112.00
2023-05-02T08:17:06.568Z,11720.00
2023-05-02T08:18:06.607Z,11028.00
2023-05-02T08:19:06.546Z,10988.00
2023-05-02T08:20:06.542Z,11508.00
2023-05-02T08:21:06.551Z,12028.00
2023-05-02T08:22:06.518Z,12528.00
2023-05-02T08:23:06.544Z,12492.00
2023-05-02T08:24:06.488Z,12140.00
2023-05-02T08:25:06.492Z,12368.00
2023-05-02T08:26:06.487Z,12720.00
2023-05-02T08:27:06.464Z,12688.00
2023-05-02T08:28:06.468Z,12340.00
2023-05-02T08:29:06.451Z,12160.00
2023-05-02T08:30:06.967Z,12036.00
2023-05-02T08:31:06.549Z,11856.00
2023-05-02T08:32:06.542Z,10372.00
2023-05-02T08:33:06.496Z,9820.00
2023-05-02T08:34:06.399Z,10132.00
2023-05-02T08:35:06.367Z,11240.00
2023-05-02T08:36:06.384Z,11796.00
2023-05-02T08:37:06.360Z,12136.00
2023-05-02T08:38:06.383Z,12244.00
2023-05-02T08:39:06.345Z,12380.00
2023-05-02T08:40:06.363Z,12324.00
2023-05-02T08:41:06.341Z,11868.00
2023-05-02T08:42:07.311Z,11356.00
2023-05-02T08:43:06.355Z,10680.00
2023-05-02T08:44:06.295Z,10232.00
2023-05-02T08:45:06.280Z,10080.00
2023-05-02T08:46:06.268Z,10136.00
2023-05-02T08:47:06.337Z,10344.00
2023-05-02T08:48:06.368Z,10548.00
2023-05-02T08:49:06.249Z,10844.00
2023-05-02T08:50:06.236Z,10420.00
2023-05-02T08:51:06.223Z,10360.00
2023-05-02T08:52:06.206Z,10252.00
2023-05-02T08:53:06.265Z,10180.00
2023-05-02T08:54:06.182Z,10144.00
2023-05-02T08:55:06.181Z,9996.00
2023-05-02T08:56:06.171Z,9968.00
2023-05-02T08:57:06.169Z,9676.00
2023-05-02T08:58:06.205Z,9308.00
2023-05-02T08:59:06.132Z,9364.00
2023-05-02T09:00:06.151Z,9872.00
2023-05-02T09:01:06.157Z,10568.00
2023-05-02T09:02:06.133Z,11328.00
2023-05-02T09:03:06.190Z,11512.00
2023-05-02T09:04:06.133Z,11592.00
2023-05-02T09:05:06.096Z,11824.00
2023-05-02T09:06:06.133Z,11332.00
2023-05-02T09:07:06.065Z,11176.00
2023-05-02T09:08:06.080Z,11096.00
2023-05-02T09:09:06.041Z,10068.00
2023-05-02T09:10:06.029Z,8640.00
2023-05-02T09:11:06.025Z,8080.00
2023-05-02T09:12:06.020Z,7624.00
2023-05-02T09:13:06.024Z,7376.00
2023-05-02T09:14:05.993Z,7424.00
2023-05-02T09:15:05.973Z,7396.00
2023-05-02T09:16:06.000Z,7152.00
2023-05-02T09:17:05.998Z,7256.00
2023-05-02T09:18:06.073Z,7604.00
2023-05-02T09:19:05.944Z,8092.00
2023-05-02T09:20:05.938Z,8708.00
2023-05-02T09:21:05.919Z,9552.00
2023-05-02T09:22:05.912Z,10548.00
2023-05-02T09:23:05.920Z,11824.00
2023-05-02T09:24:05.901Z,12728.00
2023-05-02T09:25:05.896Z,13332.00
2023-05-02T09:26:05.877Z,13700.00
2023-05-02T09:27:05.874Z,13896.00
2023-05-02T09:28:05.873Z,14204.00
2023-05-02T09:29:05.838Z,14508.00
2023-05-02T09:30:05.848Z,14532.00
2023-05-02T09:31:05.865Z,14344.00
2023-05-02T09:32:05.905Z,14252.00
2023-05-02T09:33:05.857Z,14644.00
2023-05-02T09:34:05.823Z,15236.00
2023-05-02T09:35:05.785Z,15772.00
2023-05-02T09:36:05.768Z,15980.00
2023-05-02T09:37:05.853Z,16148.00
2023-05-02T09:38:05.757Z,16512.00
2023-05-02T09:39:05.786Z,16672.00
2023-05-02T09:40:05.746Z,16736.00
2023-05-02T09:41:05.789Z,16608.00
2023-05-02T09:42:05.722Z,16480.00
2023-05-02T09:43:05.707Z,16384.00
2023-05-02T09:44:05.741Z,16512.00
2023-05-02T09:45:05.691Z,16832.00
2023-05-02T09:46:05.750Z,17120.00
2023-05-02T09:47:05.670Z,17184.00
2023-05-02T09:48:05.676Z,17184.00
2023-05-02T09:49:05.686Z,17376.00
2023-05-02T09:50:05.619Z,17888.00
2023-05-02T09:51:05.662Z,18368.00
2023-05-02T09:52:05.600Z,17728.00
2023-05-02T09:53:05.634Z,18016.00
2023-05-02T09:54:05.595Z,17888.00
2023-05-02T09:55:05.581Z,16928.00
2023-05-02T09:56:05.582Z,16384.00
2023-05-02T09:57:05.556Z,16288.00
2023-05-02T09:58:05.588Z,16480.00
2023-05-02T09:59:05.546Z,16896.00
2023-05-02T10:00:05.529Z,18240.00
2023-05-02T10:01:05.561Z,18688.00
2023-05-02T10:02:05.526Z,19360.00
2023-05-02T10:03:05.561Z,19616.00
2023-05-02T10:04:05.564Z,20320.00
2023-05-02T10:05:05.484Z,18272.00
2023-05-02T10:06:05.640Z,18944.00
2023-05-02T10:07:05.446Z,19136.00
2023-05-02T10:08:05.470Z,18752.00
2023-05-02T10:09:05.459Z,19424.00
2023-05-02T10:10:05.442Z,19808.00
2023-05-02T10:11:05.489Z,19264.00
2023-05-02T10:12:05.418Z,19328.00
2023-05-02T10:13:05.456Z,17856.00
2023-05-02T10:14:05.389Z,16832.00
2023-05-02T10:15:07.301Z,15460.00
2023-05-02T10:16:37.782Z,15936.00
2023-05-02T10:17:05.372Z,16192.00
2023-05-02T10:18:05.414Z,16800.00
2023-05-02T10:19:05.337Z,17600.00
2023-05-02T10:20:05.332Z,16160.00
2023-05-02T10:21:05.313Z,14960.00
2023-05-02T10:22:05.312Z,14668.00
2023-05-02T10:23:05.313Z,14768.00
2023-05-02T10:24:05.286Z,14328.00
2023-05-02T10:25:05.432Z,13092.00
2023-05-02T10:26:05.273Z,12676.00
2023-05-02T10:27:05.261Z,12436.00
2023-05-02T10:28:06.162Z,12228.00
2023-05-02T10:29:05.238Z,11376.00
2023-05-02T10:30:05.238Z,10404.00
2023-05-02T10:31:05.232Z,10052.00
2023-05-02T10:32:05.249Z,9644.00
2023-05-02T10:33:05.275Z,9272.00
2023-05-02T10:34:05.186Z,9524.00
2023-05-02T10:35:05.225Z,10528.00
2023-05-02T10:36:05.169Z,11908.00
2023-05-02T10:37:05.158Z,13288.00
2023-05-02T10:38:05.173Z,14552.00
2023-05-02T10:39:05.150Z,16416.00
2023-05-02T10:40:05.164Z,17600.00
2023-05-02T10:41:05.114Z,18336.00
2023-05-02T10:42:05.139Z,18656.00
2023-05-02T10:43:05.098Z,18112.00
2023-05-02T10:44:05.089Z,17824.00
2023-05-02T10:45:05.184Z,17216.00
2023-05-02T10:46:05.068Z,16672.00
2023-05-02T10:47:05.117Z,16864.00
2023-05-02T10:48:05.138Z,17056.00
2023-05-02T10:49:05.057Z,16704.00
2023-05-02T10:50:05.048Z,16768.00
2023-05-02T10:51:05.029Z,16960.00
2023-05-02T10:52:05.015Z,16864.00
2023-05-02T10:53:05.022Z,16352.00
2023-05-02T10:54:04.986Z,15308.00
2023-05-02T10:55:04.985Z,15264.00
2023-05-02T10:56:04.980Z,15968.00
2023-05-02T10:57:04.964Z,17280.00
2023-05-02T10:58:05.010Z,16544.00
2023-05-02T10:59:04.940Z,15456.00
2023-05-02T11:00:04.939Z,15392.00
2023-05-02T11:01:04.997Z,16160.00
2023-05-02T11:02:07.101Z,16064.00
2023-05-02T11:03:06.042Z,15904.00
2023-05-02T11:04:04.907Z,14896.00
2023-05-02T11:05:05.219Z,13608.00
2023-05-02T11:06:04.907Z,12452.00
2023-05-02T11:07:04.877Z,12888.00
2023-05-02T11:08:04.977Z,13292.00
2023-05-02T11:09:04.846Z,13856.00
2023-05-02T11:10:04.834Z,14256.00
2023-05-02T11:11:04.825Z,14204.00
2023-05-02T11:12:04.886Z,13760.00
2023-05-02T11:13:04.824Z,12636.00
2023-05-02T11:14:04.798Z,12116.00
2023-05-02T11:15:04.801Z,11632.00
2023-05-02T11:16:04.805Z,10844.00
2023-05-02T11:17:04.840Z,9444.00
2023-05-02T11:18:04.850Z,8844.00
2023-05-02T11:19:04.751Z,8952.00
2023-05-02T11:20:04.784Z,8636.00
2023-05-02T11:21:04.799Z,8548.00
2023-05-02T11:22:04.729Z,7488.00
2023-05-02T11:23:04.730Z,7216.00
2023-05-02T11:24:04.710Z,7076.00
2023-05-02T11:25:04.692Z,7216.00
2023-05-02T11:26:04.683Z,7244.00
2023-05-02T11:27:04.673Z,7532.00
2023-05-02T11:28:04.693Z,7716.00
2023-05-02T11:29:04.646Z,7456.00
2023-05-02T11:30:04.655Z,7452.00
2023-05-02T11:31:04.635Z,7808.00
2023-05-02T11:32:04.704Z,8192.00
2023-05-02T11:33:04.692Z,8568.00
2023-05-02T11:34:04.650Z,9344.00
2023-05-02T11:35:04.610Z,10484.00
2023-05-02T11:36:04.597Z,11392.00
2023-05-02T11:37:04.573Z,11200.00
2023-05-02T11:38:04.620Z,10564.00
2023-05-02T11:39:04.554Z,10044.00
2023-05-02T11:40:04.548Z,9884.00
2023-05-02T11:41:04.671Z,10076.00
2023-05-02T11:42:04.544Z,9896.00
2023-05-02T11:43:04.537Z,9252.00
2023-05-02T11:44:04.502Z,8836.00
2023-05-02T11:45:04.740Z,8504.00
2023-05-02T11:46:04.542Z,8284.00
2023-05-02T11:47:04.493Z,9368.00
2023-05-02T11:48:04.727Z,10336.00
2023-05-02T11:49:06.282Z,9504.00
2023-05-02T11:50:04.465Z,8364.00
2023-05-02T11:51:04.437Z,8408.00
2023-05-02T11:52:04.423Z,8308.00
2023-05-02T11:53:04.433Z,7860.00
2023-05-02T11:54:04.404Z,7780.00
2023-05-02T11:55:04.515Z,8044.00
2023-05-02T11:56:04.398Z,8572.00
2023-05-02T11:57:04.375Z,8532.00
2023-05-02T11:58:04.387Z,8556.00
2023-05-02T11:59:04.375Z,8912.00
2023-05-02T12:00:04.339Z,9388.00
2023-05-02T12:01:04.334Z,9844.00
2023-05-02T12:02:04.394Z,9760.00
2023-05-02T12:03:05.427Z,10152.00
2023-05-02T12:04:04.316Z,11152.00
2023-05-02T12:05:04.819Z,11648.00
2023-05-02T12:06:04.511Z,11552.00
2023-05-02T12:07:04.344Z,11172.00
2023-05-02T12:08:04.274Z,11512.00
2023-05-02T12:09:04.268Z,11460.00
2023-05-02T12:10:04.255Z,11724.00
2023-05-02T12:11:04.249Z,11612.00
2023-05-02T12:12:04.218Z,11620.00
2023-05-02T12:13:04.217Z,11664.00
2023-05-02T12:14:04.197Z,11668.00
2023-05-02T12:15:04.379Z,11924.00
2023-05-02T12:16:04.239Z,12928.00
2023-05-02T12:17:04.210Z,13952.00
2023-05-02T12:18:04.256Z,14612.00
2023-05-02T12:19:04.142Z,15584.00
2023-05-02T12:20:04.149Z,15252.00
2023-05-02T12:21:04.170Z,15712.00
2023-05-02T12:22:04.125Z,16480.00
2023-05-02T12:23:04.118Z,16928.00